Pagrindinis puslapis
METAR-TAF:

METAR-TAF

Oro uostai :

Sen Deni, Reunjonas

platuma: 20-53S, ilguma: 055-31E, Aukštis: 21 m

Dabartinis oras

Ataskaita buvo paskelbta 21 minutes, ne 04:30 UTC
Vėjas 8 kt iš Rytų, svyruoja nuo Rytų/Šiaurės Rytų ir Pietryčių
Temperatūra 24°C
Drėgmė 69%
Slėgis 1017 hPa
Matomumas 10 km arba daugiau
nėra debesų žemiau 1500 m ir nėra kamuolinių lietaus debesų

METAR: FMEE 180430Z AUTO 10008KT 070V130 CAVOK 24/18 Q1017 NOSIG

Laikas: 08:51 (04:51 UTC)

Prognozė

Ataskaita buvo paskelbta 5 valandos ir 51 minutes, ne 23:00 UTC
Prognozė galioja nuo 18 metu 00 UTC su 19 metu 06 UTC
Vėjas 5 kt iš Pietų
Matomumas 10 km arba daugiau
Mažai debesys ne aukštis 2500 ft
Su prošvaistėmis ne aukštis 5000 ft
Tapsmas
nuo 18 metu 04 UTC su 18 metu 06 UTC
Vėjas 15 kt iš Rytų
Laikinai
nuo 18 metu 08 UTC su 18 metu 15 UTC
Vėjas 15 kt iš Rytų/Pietryčių su gūsio iki 25 kt
lietus

TAF: FMEE 172300Z 1800/1906 17005KT 9999 FEW025 BKN050 BECMG 1804/1806 10015KT TEMPO 1808/1815 12015G25KT SHRA

Orai ataskaitas ir orų prognozės (METAR, TAF).

turimą stotys yra geltonos ir raudonos taškus žemėlapyje.

Perkelti pele per norėdami pamatyti stoties vardą.

Tada spustelėkite, norėdami matyti oro stebėjimo ir prognozės.

Norėdami pakeisti žemėlapį: spustelėkite ant žalios mygtukų su juodo kryžiaus žemyn,; žalią mygtuką su brūkšneliu, jei norite nutolinti; arba žalių rodyklių gretimoms žemėlapius.


METAR-TAF: